Greenfield, NH (03047)

6:13 AM EST on February 11, 2016 (GMT -0500)
Otter Brook Farm | | Change Station
CLOSE
Current Station
Personal Weather Station
Location: Peterborough, NH
Elevation: 817 ft
Nearby Weather Stations

Elev 817 ft 42.92 °N, 71.90 °W | Updated 10 minutes ago

Overcast
Overcast
20.5 °F
Feels Like 20 °F
N
0.0
Wind Variable Wind from NW
Gusts 0.0 mph

Today
High -- | Low -- °F
--% Chance of Precip.
Yesterday
High -- | Low -- °F
Precip. -- in
Pressure 29.67 in
Visibility 10.0 miles
Clouds Mostly Cloudy 3600 ft
Overcast 7500 ft
Windchill 20 °F
Dew Point 16 °F
Humidity 84%
Rainfall 0.00 in
Snow Depth Not available.
6:51 AM 5:13 PM
Waxing Crescent, 11% visible
METAR KAFN 111052Z AUTO 28005KT 10SM BKN036 OVC075 M07/M11 A2961 RMK AO2 SNE08 SLP046 P0000 T10671111
Pressure 29.67 in
Visibility 10.0 miles
Clouds Mostly Cloudy 3600 ft
Overcast 7500 ft
Windchill 20 °F
Dew Point 16 °F
Humidity 84%
Rainfall 0.00 in
Snow Depth Not available.
6:51 AM 5:13 PM
Waxing Crescent, 11% visible
METAR KAFN 111052Z AUTO 28005KT 10SM BKN036 OVC075 M07/M11 A2961 RMK AO2 SNE08 SLP046 P0000 T10671111

10-Day Weather Forecast

Almanac

Astronomy

Feb. 11, 2016 Rise Set
Actual Time
Civil Twilight
Nautical Twilight
Astronomical Twilight
Moon
Length of Visible Light
Length of Day
Tomorrow will be .
, % of the Moon is Illuminated

Today's Extremes

State Highs State Lows

Community

WunderPhotos

Upload Photos

1,892,030 photos uploaded!

WunderBlog® & News

Nearby

Air Quality

  Air Quality AQ Index Pollutant
Not available.

Snow Depth

Station Depth Elevation

Earthquake Activity

City Distance Mag. Time & Date
Minimum magnitude displayed is 2.5.

Coastal Water Temperatures

Place Temperature

Stations

Nearby Weather Stations

Station Location Temp. Windchill Dew Point Humidity Wind Precip. Elev Updated Type
                   

Watches & Warnings

There are currently no watches in effect.